Time;durP1;ratioP1;P1;durP2;ratioP2;P2;SDS_P1;SDS_P2;PMS_P1;PMS_P2;Temp;Humidity;BMP_temperature;BMP_pressure;BME280_temperature;BME280_humidity;BME280_pressure;Samples;Min_cycle;Max_cycle;Signal;HPM_P1;HPM_P2
2020/12/18 00:03:27;;;;;;;18.60;7.55;;;8.90;99.90;;;;;;4916639;29;20031;-67
2020/12/18 00:05:53;;;;;;;16.92;7.15;;;8.90;99.90;;;;;;4916693;29;20428;-66
2020/12/18 00:08:18;;;;;;;14.27;7.45;;;8.90;99.90;;;;;;4916671;29;20028;-66
2020/12/18 00:10:44;;;;;;;13.63;6.80;;;8.90;99.90;;;;;;4916274;29;20478;-68
2020/12/18 00:13:10;;;;;;;17.40;6.95;;;8.90;99.90;;;;;;4916543;29;20024;-68
2020/12/18 00:15:35;;;;;;;14.57;6.90;;;8.90;99.90;;;;;;4916208;29;20039;-67
2020/12/18 00:18:01;;;;;;;13.70;6.53;;;8.90;99.90;;;;;;4916335;29;20029;-67
2020/12/18 00:20:27;;;;;;;15.52;7.05;;;8.90;99.90;;;;;;4916257;29;20181;-64
2020/12/18 00:22:53;;;;;;;18.02;6.80;;;8.90;99.90;;;;;;4916166;29;20032;-66
2020/12/18 00:25:18;;;;;;;19.38;6.80;;;8.90;99.90;;;;;;4916176;29;20032;-66
2020/12/18 00:27:44;;;;;;;19.30;7.07;;;8.90;99.90;;;;;;4916122;29;20119;-69
2020/12/18 00:33:33;;;;;;;15.23;7.05;;;9.00;99.90;;;;;;4916503;29;20496;-68
2020/12/18 00:35:58;;;;;;;16.23;7.45;;;8.90;99.90;;;;;;4916375;29;20050;-66
2020/12/18 00:38:24;;;;;;;12.05;6.85;;;8.90;99.90;;;;;;4916485;29;20096;-67
2020/12/18 00:40:50;;;;;;;18.13;7.18;;;9.00;99.90;;;;;;4919369;29;20401;-67
2020/12/18 00:43:16;;;;;;;17.00;7.25;;;8.90;99.90;;;;;;4919466;29;20115;-67
2020/12/18 00:45:44;;;;;;;18.67;6.90;;;8.90;99.90;;;;;;4919647;29;20107;-67
2020/12/18 00:48:11;;;;;;;17.65;6.85;;;8.90;99.90;;;;;;4919360;29;20044;-66
2020/12/18 00:50:37;;;;;;;16.70;7.03;;;9.00;99.90;;;;;;4919326;29;20484;-68
2020/12/18 00:53:04;;;;;;;12.30;6.40;;;9.00;99.90;;;;;;4919191;29;20036;-64
2020/12/18 00:55:30;;;;;;;17.38;6.53;;;9.10;99.90;;;;;;4919277;29;20024;-67
2020/12/18 00:57:55;;;;;;;19.45;7.68;;;9.10;99.90;;;;;;4919515;29;20425;-67
2020/12/18 01:03:43;;;;;;;22.40;9.40;;;9.20;99.90;;;;;;4919412;29;20058;-67
2020/12/18 01:06:14;;;;;;;23.95;9.80;;;9.30;99.90;;;;;;4919048;29;20465;-67
2020/12/18 01:08:40;;;;;;;17.55;9.38;;;9.30;99.90;;;;;;4919213;29;20106;-64
2020/12/18 01:11:07;;;;;;;25.75;10.35;;;9.30;99.90;;;;;;4918937;29;20032;-65
2020/12/18 01:13:33;;;;;;;18.05;10.32;;;9.40;99.90;;;;;;4918991;29;20031;-67
2020/12/18 01:15:59;;;;;;;24.60;11.48;;;9.40;99.90;;;;;;4918862;29;20110;-68
2020/12/18 01:18:26;;;;;;;24.30;10.98;;;9.40;99.90;;;;;;4918937;29;20043;-67
2020/12/18 01:20:52;;;;;;;24.88;11.85;;;9.40;99.90;;;;;;4919153;29;20032;-67
2020/12/18 01:23:18;;;;;;;26.67;13.95;;;9.50;99.90;;;;;;4918787;29;20025;-67
2020/12/18 01:25:44;;;;;;;33.92;16.30;;;9.50;99.90;;;;;;4918744;29;20111;-68
2020/12/18 01:28:11;;;;;;;30.13;16.85;;;9.50;99.90;;;;;;4918995;29;20156;-67
2020/12/18 01:33:59;;;;;;;41.75;21.55;;;9.50;99.90;;;;;;4918886;29;20388;-66
2020/12/18 01:36:25;;;;;;;45.05;26.20;;;9.50;99.90;;;;;;4918558;29;20032;-66
2020/12/18 01:38:50;;;;;;;37.22;22.05;;;9.60;99.90;;;;;;4918554;29;20032;-66
2020/12/18 01:41:16;;;;;;;38.40;22.52;;;9.60;99.90;;;;;;4918546;29;20039;-66
2020/12/18 01:43:42;;;;;;;62.85;38.47;;;9.60;99.90;;;;;;4918370;29;20071;-66
2020/12/18 01:46:13;;;;;;;68.10;40.63;;;9.60;99.90;;;;;;4918684;29;20032;-65
2020/12/18 01:48:40;;;;;;;57.13;38.75;;;9.60;99.90;;;;;;4918187;29;20412;-69
2020/12/18 01:51:08;;;;;;;53.42;36.10;;;9.70;99.90;;;;;;4917904;29;20043;-64
2020/12/18 01:53:34;;;;;;;59.58;38.22;;;9.60;99.90;;;;;;4918540;29;20032;-67
2020/12/18 01:56:00;;;;;;;56.47;35.25;;;9.60;99.90;;;;;;4918435;29;20384;-66
2020/12/18 02:04:52;;;;;;;39.83;25.52;;;9.70;99.90;;;;;;4918175;29;20180;-67
2020/12/18 02:07:23;;;;;;;34.58;23.05;;;9.70;99.90;;;;;;4917975;29;20024;-67
2020/12/18 02:09:50;;;;;;;79.05;39.75;;;9.70;99.90;;;;;;4917928;29;20036;-66
2020/12/18 02:12:17;;;;;;;73.72;34.47;;;9.70;99.90;;;;;;4917902;29;20056;-66
2020/12/18 02:14:43;;;;;;;32.33;18.60;;;9.70;99.90;;;;;;4917881;29;20476;-67
2020/12/18 02:17:09;;;;;;;31.70;17.05;;;9.60;99.90;;;;;;4917849;29;20028;-66
2020/12/18 02:19:35;;;;;;;27.85;15.85;;;9.70;99.90;;;;;;4917736;29;20386;-67
2020/12/18 02:22:15;;;;;;;31.08;15.75;;;9.70;99.90;;;;;;4917759;29;20494;-64
2020/12/18 02:24:50;;;;;;;28.42;15.73;;;9.70;99.90;;;;;;4917939;29;20079;-66
2020/12/18 02:27:16;;;;;;;36.00;15.32;;;9.70;99.90;;;;;;4917936;29;20115;-67
2020/12/18 02:29:42;;;;;;;30.90;16.98;;;9.70;99.90;;;;;;4917409;29;20445;-67
2020/12/18 02:32:08;;;;;;;30.25;15.85;;;9.70;99.90;;;;;;4917806;29;20083;-67
2020/12/18 02:34:34;;;;;;;31.85;15.52;;;9.70;99.90;;;;;;4917459;29;20465;-67
2020/12/18 02:37:00;;;;;;;26.65;15.93;;;9.70;99.90;;;;;;4917391;29;20036;-67
2020/12/18 02:39:26;;;;;;;31.98;16.85;;;9.80;99.90;;;;;;4917354;29;20020;-68
2020/12/18 02:41:52;;;;;;;30.50;15.45;;;9.70;99.90;;;;;;4900502;29;20035;-68
2020/12/18 02:44:18;;;;;;;32.08;17.77;;;9.80;99.90;;;;;;4917321;29;20020;-68
2020/12/18 02:46:46;;;;;;;28.23;17.25;;;9.80;99.90;;;;;;4917548;29;20040;-65
2020/12/18 02:49:12;;;;;;;29.98;17.00;;;9.70;99.90;;;;;;4917371;29;20036;-67
2020/12/18 02:51:38;;;;;;;34.17;17.17;;;9.70;99.90;;;;;;4917214;29;20111;-68
2020/12/18 02:54:04;;;;;;;34.95;16.92;;;9.70;99.90;;;;;;4917233;29;20040;-67
2020/12/18 02:56:30;;;;;;;31.65;16.48;;;9.70;99.90;;;;;;4917171;29;20476;-68
2020/12/18 02:58:56;;;;;;;36.15;17.38;;;9.70;99.90;;;;;;4917019;29;20042;-67
2020/12/18 03:01:21;;;;;;;33.13;17.35;;;9.70;99.90;;;;;;4917264;29;20092;-67
2020/12/18 03:03:47;;;;;;;32.05;17.50;;;9.70;99.90;;;;;;4916456;29;20460;-67
2020/12/18 03:06:13;;;;;;;31.77;18.48;;;9.70;99.90;;;;;;4917275;29;20027;-67
2020/12/18 03:08:39;;;;;;;37.22;17.58;;;9.60;99.90;;;;;;4917053;29;20387;-67
2020/12/18 03:11:05;;;;;;;31.20;18.25;;;9.70;99.90;;;;;;4916869;29;20055;-67
2020/12/18 03:13:31;;;;;;;29.05;17.92;;;9.70;99.90;;;;;;4916878;29;20030;-67
2020/12/18 03:19:18;;;;;;;30.17;18.40;;;9.70;99.90;;;;;;4916993;29;20026;-66
2020/12/18 03:21:44;;;;;;;32.63;19.02;;;9.80;99.90;;;;;;4917073;29;20099;-67
2020/12/18 03:24:09;;;;;;;32.92;17.70;;;9.80;99.90;;;;;;4917142;29;20032;-68
2020/12/18 03:26:35;;;;;;;31.90;19.30;;;9.80;99.90;;;;;;4916827;29;20039;-68
2020/12/18 03:29:00;;;;;;;35.58;18.58;;;9.80;99.90;;;;;;4916866;29;20047;-67
2020/12/18 03:31:26;;;;;;;30.80;18.40;;;9.80;99.90;;;;;;4916964;29;20433;-67
2020/12/18 03:33:52;;;;;;;30.75;17.98;;;9.80;99.90;;;;;;4916609;29;20499;-68
2020/12/18 03:36:17;;;;;;;33.28;19.33;;;9.80;99.90;;;;;;4917058;29;20032;-68
2020/12/18 03:38:43;;;;;;;32.13;19.80;;;9.90;99.90;;;;;;4917024;29;20107;-68
2020/12/18 03:41:08;;;;;;;36.78;19.20;;;9.90;99.90;;;;;;4916629;29;20059;-67
2020/12/18 03:43:34;;;;;;;29.95;19.50;;;9.90;99.90;;;;;;4916868;29;20042;-66
2020/12/18 03:49:22;;;;;;;37.15;20.35;;;10.00;99.90;;;;;;4906349;29;20400;-67
2020/12/18 03:51:47;;;;;;;38.83;20.73;;;9.90;99.90;;;;;;4916826;29;20036;-65
2020/12/18 03:54:13;;;;;;;38.25;20.42;;;10.00;99.90;;;;;;4916715;29;20032;-65
2020/12/18 03:56:39;;;;;;;35.83;19.73;;;10.00;99.90;;;;;;4916383;29;20079;-66
2020/12/18 03:59:04;;;;;;;35.83;19.92;;;10.00;99.90;;;;;;4916625;29;20035;-67
2020/12/18 04:04:52;;;;;;;32.33;19.52;;;10.00;99.90;;;;;;4916689;29;20036;-67
2020/12/18 04:07:17;;;;;;;30.88;18.63;;;10.10;99.90;;;;;;4899420;29;20472;-68
2020/12/18 04:09:44;;;;;;;33.10;18.23;;;10.10;99.90;;;;;;4899694;29;20056;-68
2020/12/18 04:12:10;;;;;;;33.72;19.70;;;10.10;99.90;;;;;;4916580;29;20028;-68
2020/12/18 04:14:36;;;;;;;35.70;19.05;;;10.10;99.90;;;;;;4917990;29;20031;-66
2020/12/18 04:17:05;;;;;;;36.85;20.15;;;10.10;99.90;;;;;;4919946;29;20099;-66
2020/12/18 04:19:31;;;;;;;34.13;20.05;;;10.10;99.90;;;;;;4919974;29;20032;-66
2020/12/18 04:21:58;;;;;;;30.95;19.85;;;10.10;99.90;;;;;;4919889;29;20083;-64
2020/12/18 04:24:24;;;;;;;33.50;19.38;;;10.10;99.90;;;;;;4919833;29;20047;-66
2020/12/18 04:26:50;;;;;;;29.45;17.25;;;10.20;99.90;;;;;;4920045;29;20381;-66
2020/12/18 04:29:16;;;;;;;28.85;16.23;;;10.20;99.90;;;;;;4919699;29;20123;-67
2020/12/18 04:35:04;;;;;;;25.35;15.73;;;10.20;99.90;;;;;;4919910;29;20054;-68
2020/12/18 04:37:29;;;;;;;30.35;16.67;;;10.20;99.90;;;;;;4919857;29;20032;-67
2020/12/18 04:39:55;;;;;;;31.63;16.00;;;10.20;99.90;;;;;;4919843;29;20486;-66
2020/12/18 04:42:20;;;;;;;22.95;15.50;;;10.20;99.90;;;;;;4919826;29;20080;-67
2020/12/18 04:44:47;;;;;;;24.35;15.43;;;10.30;99.90;;;;;;4919412;29;20020;-68
2020/12/18 04:47:14;;;;;;;28.27;15.10;;;10.20;99.90;;;;;;4919268;29;20032;-66
2020/12/18 04:49:41;;;;;;;25.08;15.18;;;10.30;99.90;;;;;;4919309;29;20055;-65
2020/12/18 04:52:12;;;;;;;25.15;14.85;;;10.30;99.90;;;;;;4919386;29;20072;-68
2020/12/18 04:54:42;;;;;;;20.65;14.45;;;10.30;99.90;;;;;;4919336;29;20034;-68
2020/12/18 04:57:08;;;;;;;20.35;13.60;;;10.30;99.90;;;;;;4919237;29;20035;-68
2020/12/18 04:59:34;;;;;;;23.23;13.98;;;10.40;99.90;;;;;;4919541;29;20036;-68
2020/12/18 05:02:01;;;;;;;24.95;13.30;;;10.30;99.90;;;;;;4919122;29;20091;-66
2020/12/18 05:04:30;;;;;;;21.02;12.70;;;10.40;99.90;;;;;;4919208;29;20080;-67
2020/12/18 05:06:56;;;;;;;21.27;11.52;;;10.30;99.90;;;;;;4919034;29;20067;-68
2020/12/18 05:09:25;;;;;;;17.08;10.60;;;10.40;99.90;;;;;;4902527;29;20048;-67
2020/12/18 05:11:52;;;;;;;18.38;11.02;;;10.40;99.90;;;;;;4919315;29;20067;-67
2020/12/18 05:14:18;;;;;;;18.60;10.13;;;10.40;99.90;;;;;;4919190;29;20083;-66
2020/12/18 05:20:06;;;;;;;16.63;8.95;;;10.50;99.90;;;;;;4919201;29;20393;-67
2020/12/18 05:22:31;;;;;;;16.00;8.27;;;10.50;99.90;;;;;;4919042;29;20035;-68
2020/12/18 05:24:58;;;;;;;15.77;8.20;;;10.60;99.90;;;;;;4918527;29;20043;-67
2020/12/18 05:27:26;;;;;;;17.17;8.52;;;10.60;99.90;;;;;;4918050;29;20024;-68
2020/12/18 05:29:52;;;;;;;17.90;7.82;;;10.60;99.90;;;;;;4918872;29;20036;-69
2020/12/18 05:32:18;;;;;;;17.02;7.75;;;10.60;99.90;;;;;;4918680;29;20384;-67
2020/12/18 05:34:44;;;;;;;15.50;7.32;;;10.60;99.90;;;;;;4918918;29;20032;-68
2020/12/18 05:37:14;;;;;;;13.88;6.97;;;10.60;99.90;;;;;;4918856;29;20024;-68
2020/12/18 05:39:40;;;;;;;15.75;6.82;;;10.60;99.90;;;;;;4918832;29;20036;-68
2020/12/18 05:42:07;;;;;;;14.07;6.95;;;10.60;99.90;;;;;;4918457;29;20043;-67
2020/12/18 05:44:33;;;;;;;16.38;6.97;;;10.60;99.90;;;;;;4918827;29;20036;-68
2020/12/18 05:50:20;;;;;;;14.52;6.60;;;10.60;99.90;;;;;;4909132;29;20476;-68
2020/12/18 05:53:03;;;;;;;12.45;6.75;;;10.70;99.90;;;;;;4918604;29;20055;-68
2020/12/18 05:55:35;;;;;;;11.18;6.10;;;10.70;99.90;;;;;;4918568;29;20035;-68
2020/12/18 05:58:01;;;;;;;13.65;5.95;;;10.80;99.90;;;;;;4918139;29;20469;-68
2020/12/18 06:00:27;;;;;;;15.57;5.78;;;10.80;99.90;;;;;;4918213;29;20115;-68
2020/12/18 06:03:00;;;;;;;13.10;6.18;;;10.80;99.90;;;;;;4918383;29;20039;-69
2020/12/18 06:05:26;;;;;;;14.75;6.47;;;10.80;99.90;;;;;;4918102;29;20480;-68
2020/12/18 06:07:53;;;;;;;23.00;7.50;;;10.80;99.90;;;;;;4918334;29;20066;-68
2020/12/18 06:10:22;;;;;;;14.48;6.88;;;10.80;99.90;;;;;;4918239;29;20063;-68
2020/12/18 06:12:49;;;;;;;18.60;8.23;;;10.90;99.90;;;;;;4918282;29;20028;-68
2020/12/18 06:15:18;;;;;;;17.40;7.38;;;10.90;99.90;;;;;;4918127;29;20035;-68
2020/12/18 06:17:48;;;;;;;14.88;7.28;;;10.90;99.90;;;;;;4917707;29;20481;-69
2020/12/18 06:20:15;;;;;;;15.65;6.90;;;10.90;99.90;;;;;;4917805;29;20581;-69
2020/12/18 06:22:57;;;;;;;15.07;6.93;;;10.90;99.90;;;;;;4917923;29;20107;-68
2020/12/18 06:25:23;;;;;;;15.75;6.22;;;10.80;99.90;;;;;;4917988;29;20028;-69
2020/12/18 06:28:03;;;;;;;17.15;6.25;;;10.70;99.90;;;;;;4917600;29;20110;-67
2020/12/18 06:30:29;;;;;;;12.30;5.75;;;10.70;99.90;;;;;;4917443;29;20040;-69
2020/12/18 06:32:56;;;;;;;13.05;6.18;;;10.70;99.90;;;;;;4917606;29;20025;-67
2020/12/18 06:35:33;;;;;;;15.27;6.65;;;10.60;99.90;;;;;;4917767;29;20035;-68
2020/12/18 06:38:14;;;;;;;14.50;6.55;;;10.60;99.90;;;;;;4917475;29;20031;-67
2020/12/18 06:40:40;;;;;;;16.25;6.45;;;10.60;99.90;;;;;;4917619;29;20385;-67
2020/12/18 06:43:05;;;;;;;16.73;6.22;;;10.60;99.90;;;;;;4917725;29;20032;-68
2020/12/18 06:45:31;;;;;;;13.70;6.38;;;10.50;99.90;;;;;;4917603;29;20031;-68
2020/12/18 06:47:57;;;;;;;16.17;6.50;;;10.50;99.90;;;;;;4917091;29;20024;-68
2020/12/18 06:50:23;;;;;;;12.13;5.65;;;10.40;99.90;;;;;;4917153;29;20056;-68
2020/12/18 06:52:56;;;;;;;14.98;5.82;;;10.40;99.90;;;;;;4917233;29;20028;-68
2020/12/18 06:55:24;;;;;;;12.63;5.47;;;10.30;99.90;;;;;;4917461;29;20072;-68
2020/12/18 06:58:05;;;;;;;12.43;4.82;;;10.40;99.90;;;;;;4917129;29;20024;-68
2020/12/18 07:00:32;;;;;;;12.65;4.90;;;10.40;99.90;;;;;;4917352;29;20027;-67
2020/12/18 07:02:59;;;;;;;14.23;4.32;;;10.50;99.90;;;;;;4917348;29;20059;-68
2020/12/18 07:05:29;;;;;;;14.07;4.47;;;10.60;99.90;;;;;;4916947;29;20064;-67
2020/12/18 07:07:57;;;;;;;12.10;4.60;;;10.60;99.90;;;;;;4917017;29;20377;-68
2020/12/18 07:10:33;;;;;;;8.55;4.53;;;10.60;99.90;;;;;;4917074;29;20040;-69
2020/12/18 07:13:00;;;;;;;11.98;4.63;;;10.70;99.90;;;;;;4917198;29;20371;-69
2020/12/18 07:22:09;;;;;;;12.55;4.35;;;10.80;99.90;;;;;;4917184;29;20064;-63
2020/12/18 07:24:35;;;;;;;13.25;4.43;;;13.00;99.90;;;;;;4916705;29;20119;-63
2020/12/18 07:27:01;;;;;;;11.27;3.47;;;14.40;99.90;;;;;;4917028;29;20107;-63
2020/12/18 07:29:27;;;;;;;10.15;3.50;;;15.10;99.90;;;;;;4916992;29;20422;-64
2020/12/18 07:31:55;;;;;;;9.57;3.63;;;15.20;99.90;;;;;;4916688;29;20111;-65
2020/12/18 07:34:21;;;;;;;12.52;4.07;;;15.20;99.90;;;;;;4916970;29;20024;-65
2020/12/18 07:36:47;;;;;;;10.65;3.85;;;15.50;99.90;;;;;;4916627;29;20124;-63
2020/12/18 07:39:12;;;;;;;13.93;3.85;;;16.00;99.90;;;;;;4916915;29;20441;-64
2020/12/18 07:41:38;;;;;;;13.73;4.07;;;16.20;99.90;;;;;;4916841;29;20047;-65
2020/12/18 07:44:06;;;;;;;13.60;3.35;;;16.10;99.90;;;;;;4916473;29;20487;-63
2020/12/18 07:46:33;;;;;;;11.75;3.97;;;16.00;99.90;;;;;;4916192;29;20064;-64
2020/12/18 07:49:10;;;;;;;16.35;5.38;;;16.00;99.90;;;;;;4917041;29;20039;-65
2020/12/18 07:51:37;;;;;;;15.18;4.18;;;16.10;99.90;;;;;;4920235;29;20051;-66
2020/12/18 07:54:02;;;;;;;11.43;4.85;;;16.00;99.90;;;;;;4920617;29;20024;-64
2020/12/18 07:56:28;;;;;;;11.50;4.68;;;15.90;99.90;;;;;;4920423;29;20032;-66
2020/12/18 07:59:00;;;;;;;14.15;4.35;;;16.00;99.90;;;;;;4920468;29;20094;-65
2020/12/18 08:01:33;;;;;;;9.68;4.30;;;15.50;99.90;;;;;;4919975;29;20428;-67
2020/12/18 08:03:59;;;;;;;13.90;4.67;;;15.80;99.90;;;;;;4920442;29;20463;-67
2020/12/18 08:06:26;;;;;;;11.40;4.05;;;15.60;99.90;;;;;;4920371;29;20082;-65
2020/12/18 08:08:52;;;;;;;12.57;4.97;;;15.70;99.90;;;;;;4920488;29;20032;-65
2020/12/18 08:11:20;;;;;;;12.60;3.70;;;15.70;99.90;;;;;;4920208;29;20044;-71
2020/12/18 08:13:47;;;;;;;12.85;4.43;;;15.80;99.90;;;;;;4920235;29;20028;-73
2020/12/18 08:16:21;;;;;;;13.60;3.83;;;16.10;99.90;;;;;;4920259;29;20115;-65
2020/12/18 08:18:50;;;;;;;11.77;4.50;;;17.20;99.90;;;;;;4919576;29;20111;-71
2020/12/18 08:21:20;;;;;;;17.45;5.05;;;15.00;99.90;;;;;;4919270;29;20083;-69
2020/12/18 08:23:50;;;;;;;18.42;4.78;;;13.30;99.90;;;;;;4919876;29;20043;-70
2020/12/18 08:26:18;;;;;;;13.35;5.03;;;12.40;99.90;;;;;;4919924;29;20064;-70
2020/12/18 08:28:45;;;;;;;18.35;4.97;;;11.90;99.90;;;;;;4919981;29;20032;-70
2020/12/18 08:31:13;;;;;;;16.95;4.70;;;11.70;99.90;;;;;;4919489;29;20615;-70
2020/12/18 08:33:54;;;;;;;15.05;4.85;;;11.60;99.90;;;;;;4919432;29;20032;-69
2020/12/18 08:36:23;;;;;;;14.10;4.90;;;11.30;99.90;;;;;;4919880;29;20070;-69
2020/12/18 08:39:04;;;;;;;15.02;5.72;;;11.20;99.90;;;;;;4919565;29;20024;-72
2020/12/18 08:41:46;;;;;;;13.18;5.65;;;11.00;99.90;;;;;;4919602;29;20102;-71
2020/12/18 08:44:17;;;;;;;15.93;5.40;;;10.90;99.90;;;;;;4919612;29;20039;-72
2020/12/18 08:46:43;;;;;;;16.15;5.35;;;10.80;99.90;;;;;;4919281;29;20480;-71
2020/12/18 08:49:19;;;;;;;15.00;5.28;;;10.70;99.90;;;;;;4919343;29;20055;-71
2020/12/18 08:51:46;;;;;;;13.90;4.93;;;10.70;99.90;;;;;;4919319;29;20067;-71
2020/12/18 08:54:27;;;;;;;9.48;4.93;;;10.70;99.90;;;;;;4919534;29;20121;-70
2020/12/18 08:57:25;;;;;;;15.00;5.47;;;10.70;99.90;;;;;;4919363;29;20388;-71
2020/12/18 09:00:12;;;;;;;12.57;5.63;;;10.60;99.90;;;;;;4919018;29;20040;-72
2020/12/18 09:02:50;;;;;;;18.65;5.57;;;10.70;99.90;;;;;;4919319;29;20029;-71
2020/12/18 09:05:29;;;;;;;18.08;6.32;;;10.50;99.90;;;;;;4919189;29;20416;-71
2020/12/18 09:08:05;;;;;;;18.20;6.32;;;10.50;99.90;;;;;;4919432;29;20064;-71
2020/12/18 09:10:44;;;;;;;16.23;5.90;;;10.30;99.90;;;;;;4919132;29;20036;-72
2020/12/18 09:13:16;;;;;;;18.38;6.07;;;10.30;99.90;;;;;;4918641;29;20473;-73
2020/12/18 09:15:50;;;;;;;18.98;6.07;;;10.40;99.90;;;;;;4919104;29;20031;-72
2020/12/18 09:18:27;;;;;;;15.68;6.40;;;10.40;99.90;;;;;;4918774;29;20119;-71
2020/12/18 09:20:54;;;;;;;16.77;5.80;;;10.30;99.90;;;;;;4918964;29;20096;-72
2020/12/18 09:23:33;;;;;;;15.57;5.53;;;10.30;99.90;;;;;;4918888;29;20024;-72
2020/12/18 09:26:00;;;;;;;17.95;6.22;;;10.40;99.90;;;;;;4918881;29;20444;-72
2020/12/18 09:28:27;;;;;;;18.15;6.00;;;10.40;99.90;;;;;;4918888;29;20024;-71
2020/12/18 09:30:55;;;;;;;13.52;5.72;;;10.30;99.90;;;;;;4918491;29;20048;-71
2020/12/18 09:33:23;;;;;;;12.70;6.97;;;10.40;99.90;;;;;;4918485;29;20032;-72
2020/12/18 09:35:49;;;;;;;17.27;6.15;;;10.30;99.90;;;;;;4918466;29;20024;-72
2020/12/18 09:38:20;;;;;;;19.08;6.65;;;10.40;99.90;;;;;;4918371;29;20372;-72
2020/12/18 09:40:45;;;;;;;14.98;6.15;;;10.40;99.90;;;;;;4918289;29;20042;-70
2020/12/18 09:43:11;;;;;;;19.88;6.90;;;10.30;99.90;;;;;;4918361;29;20119;-71
2020/12/18 09:45:37;;;;;;;18.05;6.43;;;10.20;99.90;;;;;;4918449;29;20111;-72
2020/12/18 09:48:02;;;;;;;15.23;5.75;;;10.30;99.90;;;;;;4918391;29;20112;-72
2020/12/18 09:50:28;;;;;;;16.55;5.97;;;10.20;99.90;;;;;;4918046;29;20071;-72
2020/12/18 09:52:53;;;;;;;14.73;5.70;;;10.20;99.90;;;;;;4918132;29;20465;-71
2020/12/18 09:55:19;;;;;;;15.05;5.50;;;10.30;99.90;;;;;;4918190;29;20119;-71
2020/12/18 09:57:45;;;;;;;15.27;5.75;;;10.30;99.90;;;;;;4917978;29;20114;-70
2020/12/18 10:00:11;;;;;;;12.10;5.70;;;10.30;99.90;;;;;;4917042;29;20391;-70
2020/12/18 10:02:36;;;;;;;13.27;5.78;;;10.20;99.90;;;;;;4917820;29;20573;-71
2020/12/18 10:05:03;;;;;;;19.63;6.13;;;10.20;99.90;;;;;;4918177;29;20426;-71
2020/12/18 10:07:29;;;;;;;13.48;5.38;;;10.30;99.90;;;;;;4918157;29;20107;-72
2020/12/18 10:09:55;;;;;;;10.20;5.45;;;10.40;99.90;;;;;;4918157;29;20480;-71
2020/12/18 10:12:20;;;;;;;18.95;5.97;;;10.40;99.90;;;;;;4917016;29;20051;-72
2020/12/18 10:14:46;;;;;;;19.67;5.13;;;10.50;99.90;;;;;;4917900;29;20421;-71
2020/12/18 10:17:12;;;;;;;11.07;4.85;;;10.60;99.90;;;;;;4917934;29;20116;-71
2020/12/18 10:19:37;;;;;;;12.30;5.15;;;10.60;99.90;;;;;;4917788;29;20700;-72
2020/12/18 10:22:03;;;;;;;17.40;4.97;;;10.60;99.90;;;;;;4916292;29;20032;-72
2020/12/18 10:24:29;;;;;;;16.80;5.03;;;10.70;99.90;;;;;;4917868;29;20032;-72
2020/12/18 10:26:55;;;;;;;11.50;4.35;;;10.70;99.90;;;;;;4917607;29;20465;-72
2020/12/18 10:29:21;;;;;;;12.75;4.53;;;10.70;99.90;;;;;;4917471;29;20024;-72
2020/12/18 10:31:51;;;;;;;14.02;4.47;;;10.70;99.90;;;;;;4917694;29;20087;-72
2020/12/18 10:34:16;;;;;;;10.10;4.47;;;10.70;99.90;;;;;;4917640;29;20028;-72
2020/12/18 10:36:42;;;;;;;15.60;5.38;;;10.70;99.90;;;;;;4917456;29;20487;-71
2020/12/18 10:39:08;;;;;;;11.38;4.60;;;10.60;99.90;;;;;;4917606;29;20488;-72
2020/12/18 10:41:33;;;;;;;10.23;4.40;;;10.60;99.90;;;;;;4917330;29;20032;-72
2020/12/18 10:43:59;;;;;;;15.95;4.60;;;10.50;99.90;;;;;;4917051;29;20103;-73
2020/12/18 10:46:25;;;;;;;14.77;4.22;;;10.40;99.90;;;;;;4900456;29;20065;-71
2020/12/18 10:52:13;;;;;;;17.38;4.50;;;10.60;99.90;;;;;;4907158;29;20055;-72
2020/12/18 10:54:39;;;;;;;14.98;4.60;;;10.70;99.90;;;;;;4917461;29;20401;-72
2020/12/18 10:57:05;;;;;;;12.05;3.90;;;10.80;99.90;;;;;;4917450;29;20052;-71
2020/12/18 10:59:31;;;;;;;11.52;3.83;;;10.80;99.90;;;;;;4917292;29;20483;-71
2020/12/18 11:01:58;;;;;;;16.42;4.25;;;11.00;99.90;;;;;;4916822;29;20064;-72
2020/12/18 11:04:25;;;;;;;9.50;3.60;;;11.00;99.90;;;;;;4916931;29;20040;-71
2020/12/18 11:06:51;;;;;;;10.48;3.95;;;11.20;99.90;;;;;;4916944;29;20028;-71
2020/12/18 11:09:17;;;;;;;14.30;4.00;;;11.20;99.90;;;;;;4916616;29;20194;-71
2020/12/18 11:11:44;;;;;;;13.90;3.65;;;11.30;99.90;;;;;;4916761;29;20119;-71
2020/12/18 11:14:11;;;;;;;10.45;3.10;;;11.30;99.90;;;;;;4916817;29;20116;-71
2020/12/18 11:16:37;;;;;;;10.85;3.20;;;11.40;99.90;;;;;;4916675;29;20032;-71
2020/12/18 11:22:25;;;;;;;8.90;2.90;;;11.50;99.90;;;;;;4916860;29;20067;-71
2020/12/18 11:24:51;;;;;;;8.77;2.78;;;11.70;99.90;;;;;;4915780;29;20431;-71
2020/12/18 11:27:16;;;;;;;7.57;2.38;;;11.80;99.90;;;;;;4916634;29;20060;-71
2020/12/18 11:29:42;;;;;;;7.13;2.45;;;11.90;99.90;;;;;;4916505;29;20083;-70
2020/12/18 11:32:08;;;;;;;9.27;3.28;;;12.00;99.90;;;;;;4916713;29;20028;-72
2020/12/18 11:34:34;;;;;;;8.45;2.95;;;12.10;99.90;;;;;;4916521;29;20040;-70
2020/12/18 11:37:00;;;;;;;6.07;2.55;;;12.40;99.90;;;;;;4916731;29;20024;-71
2020/12/18 11:39:26;;;;;;;13.27;2.55;;;12.50;99.90;;;;;;4916590;29;20043;-73
2020/12/18 11:41:52;;;;;;;11.27;2.83;;;12.50;99.90;;;;;;4916506;29;20421;-72
2020/12/18 11:44:18;;;;;;;9.27;2.80;;;12.60;99.90;;;;;;4916402;29;20016;-72
2020/12/18 11:46:48;;;;;;;9.70;3.00;;;12.60;99.90;;;;;;4916213;29;20035;-72
2020/12/18 11:52:36;;;;;;;4.97;2.20;;;12.90;99.90;;;;;;4913161;29;20107;-71
2020/12/18 11:55:01;;;;;;;2.90;1.73;;;13.00;99.90;;;;;;4916445;29;20036;-72
2020/12/18 11:57:27;;;;;;;9.30;2.40;;;13.10;99.90;;;;;;4916479;29;20068;-71
2020/12/18 11:59:53;;;;;;;6.90;2.17;;;13.00;99.90;;;;;;4916386;29;20067;-70
2020/12/18 12:02:18;;;;;;;6.43;1.73;;;13.20;99.90;;;;;;4916481;29;20058;-71
2020/12/18 12:04:44;;;;;;;7.53;1.90;;;13.20;99.90;;;;;;4916171;29;20031;-71
2020/12/18 12:07:10;;;;;;;4.10;1.80;;;13.30;99.90;;;;;;4916331;29;20028;-71
2020/12/18 12:09:35;;;;;;;6.63;2.30;;;13.50;99.90;;;;;;4916125;29;20044;-71
2020/12/18 12:12:01;;;;;;;5.40;2.08;;;13.40;99.90;;;;;;4916217;29;20429;-71
2020/12/18 12:14:27;;;;;;;5.00;2.05;;;13.40;99.90;;;;;;4916136;29;20485;-71
2020/12/18 12:16:52;;;;;;;7.57;1.98;;;13.40;99.90;;;;;;4916043;29;20028;-72
2020/12/18 12:22:40;;;;;;;6.18;2.22;;;13.20;99.90;;;;;;4916279;29;20083;-70
2020/12/18 12:25:06;;;;;;;8.75;2.22;;;13.30;99.90;;;;;;4916441;29;20384;-70
2020/12/18 12:27:31;;;;;;;6.88;1.92;;;13.20;99.90;;;;;;4915793;29;20441;-70
2020/12/18 12:29:57;;;;;;;4.10;2.00;;;13.00;99.90;;;;;;4915837;29;20044;-70
2020/12/18 12:32:23;;;;;;;6.35;2.25;;;13.00;99.90;;;;;;4916064;29;20092;-69
2020/12/18 12:34:49;;;;;;;6.70;2.13;;;13.10;99.90;;;;;;4916423;29;20036;-71
2020/12/18 12:37:15;;;;;;;7.18;2.05;;;13.20;99.90;;;;;;4919392;29;20536;-72
2020/12/18 12:39:42;;;;;;;5.45;2.03;;;13.10;99.90;;;;;;4919408;29;20116;-71
2020/12/18 12:42:08;;;;;;;4.38;1.85;;;13.20;99.90;;;;;;4919543;29;20028;-70
2020/12/18 12:44:34;;;;;;;4.20;1.73;;;13.30;99.90;;;;;;4919188;29;20079;-71
2020/12/18 12:47:01;;;;;;;4.50;1.73;;;13.30;99.90;;;;;;4919277;29;20021;-70
2020/12/18 12:52:48;;;;;;;5.38;1.75;;;13.40;99.90;;;;;;4916971;29;20176;-71
2020/12/18 12:55:14;;;;;;;6.93;1.85;;;13.20;99.90;;;;;;4918943;29;20493;-71
2020/12/18 12:57:39;;;;;;;4.10;1.58;;;13.20;99.90;;;;;;4919365;29;20029;-71
2020/12/18 13:00:06;;;;;;;6.45;1.80;;;13.10;99.90;;;;;;4919300;29;20032;-72
2020/12/18 13:02:31;;;;;;;4.28;2.00;;;13.30;99.90;;;;;;4919056;29;20020;-71
2020/12/18 13:04:57;;;;;;;4.38;2.08;;;13.30;99.90;;;;;;4918924;29;20028;-71
2020/12/18 13:07:23;;;;;;;5.93;1.80;;;13.50;99.90;;;;;;4919223;29;20116;-70
2020/12/18 13:09:50;;;;;;;4.22;1.77;;;13.70;99.90;;;;;;4918793;29;20453;-71
2020/12/18 13:12:15;;;;;;;4.20;1.60;;;14.00;99.90;;;;;;4918865;29;20028;-71
2020/12/18 13:14:43;;;;;;;3.40;1.55;;;14.00;99.90;;;;;;4919118;29;20039;-71
2020/12/18 13:17:09;;;;;;;5.43;1.77;;;13.90;99.90;;;;;;4918565;29;20052;-71
2020/12/18 13:22:56;;;;;;;4.60;1.90;;;14.10;99.90;;;;;;4919071;29;20043;-69
2020/12/18 13:25:24;;;;;;;3.63;1.50;;;14.10;99.90;;;;;;4918935;29;20024;-69
2020/12/18 13:27:53;;;;;;;3.60;1.42;;;14.20;99.90;;;;;;4918950;29;20054;-70
2020/12/18 13:30:20;;;;;;;6.18;1.85;;;14.00;99.90;;;;;;4918558;29;20088;-69
2020/12/18 13:32:46;;;;;;;5.78;1.70;;;14.20;99.90;;;;;;4917802;29;20028;-71
2020/12/18 13:35:11;;;;;;;3.92;1.80;;;14.10;99.90;;;;;;4918810;29;20032;-70
2020/12/18 13:37:37;;;;;;;6.35;1.80;;;13.90;99.90;;;;;;4918455;29;20416;-71
2020/12/18 13:40:07;;;;;;;4.43;2.03;;;13.90;99.90;;;;;;4918432;29;20056;-70
2020/12/18 13:42:37;;;;;;;6.22;1.92;;;13.90;99.90;;;;;;4918652;29;20079;-71
2020/12/18 13:45:08;;;;;;;5.05;2.00;;;14.00;99.90;;;;;;4918386;29;20103;-71